Shannon, GA (30172)

1:15 PM EST on February 08, 2016 (GMT -0500)
Hermitage Heights | | Change Station
CLOSE
Current Station
Personal Weather Station
Location: Rome, GA
Elevation: 771 ft
Nearby Weather Stations

Elev 771 ft 34.33 °N, 85.07 °W | Updated 2 minutes ago

Partly Cloudy
Partly Cloudy
52.0 °F
Feels Like 52.0 °F
N
6.3
Wind Variable Wind from WSW

Today
High -- | Low -- °F
--% Chance of Precip.
Yesterday
High -- | Low -- °F
Precip. -- in
Pressure 29.76 in
Visibility 10.0 miles
Clouds Scattered Clouds 8000 ft
Dew Point 24 °F
Humidity 33%
Rainfall 0.00 in
Snow Depth Not available.
7:32 AM 6:16 PM
New Moon, 0% visible
METAR KRMG 081753Z AUTO 28014G25KT 10SM SCT080 10/M06 A2976 RMK AO2 SLP077 T01001061 10111 21011 58017
Pressure 29.76 in
Visibility 10.0 miles
Clouds Scattered Clouds 8000 ft
Dew Point 24 °F
Humidity 33%
Rainfall 0.00 in
Snow Depth Not available.
7:32 AM 6:16 PM
New Moon, 0% visible
METAR KRMG 081753Z AUTO 28014G25KT 10SM SCT080 10/M06 A2976 RMK AO2 SLP077 T01001061 10111 21011 58017

10-Day Weather Forecast

Almanac

Astronomy

Feb. 08, 2016 Rise Set
Actual Time
Civil Twilight
Nautical Twilight
Astronomical Twilight
Moon
Length of Visible Light
Length of Day
Tomorrow will be .
, % of the Moon is Illuminated

Today's Extremes

State Highs State Lows

Community

WunderPhotos

Upload Photos

1,891,475 photos uploaded!

WunderBlog® & News

Nearby

Air Quality

  Air Quality AQ Index Pollutant
Not available.

Snow Depth

Station Depth Elevation

Earthquake Activity

City Distance Mag. Time & Date
Minimum magnitude displayed is 2.5.

Coastal Water Temperatures

Place Temperature

Stations

Nearby Weather Stations

Station Location Temp. Windchill Dew Point Humidity Wind Precip. Elev Updated Type
                   

Watches & Warnings

There are currently no watches in effect.